sensor_id;sensor_type;location;lat;lon;timestamp;P1;durP1;ratioP1;P2;durP2;ratioP2
21624;SDS011;10974;51.034;3.744;2023-09-19T03:39:36;9.20;;;3.03;;
21624;SDS011;10974;51.034;3.744;2023-09-19T03:42:02;7.77;;;2.70;;
21624;SDS011;10974;51.034;3.744;2023-09-19T03:44:29;5.73;;;2.17;;
21624;SDS011;10974;51.034;3.744;2023-09-19T03:46:56;6.43;;;2.53;;
21624;SDS011;10974;51.034;3.744;2023-09-19T03:49:22;13.27;;;2.87;;
21624;SDS011;10974;51.034;3.744;2023-09-19T03:51:49;6.73;;;2.67;;
21624;SDS011;10974;51.034;3.744;2023-09-19T03:54:15;6.47;;;2.30;;
21624;SDS011;10974;51.034;3.744;2023-09-19T03:56:42;7.47;;;2.67;;
21624;SDS011;10974;51.034;3.744;2023-09-19T03:59:09;5.53;;;2.70;;
21624;SDS011;10974;51.034;3.744;2023-09-19T04:01:35;8.97;;;2.70;;
21624;SDS011;10974;51.034;3.744;2023-09-19T04:04:01;10.10;;;2.50;;
21624;SDS011;10974;51.034;3.744;2023-09-19T04:06:33;4.43;;;2.43;;
21624;SDS011;10974;51.034;3.744;2023-09-19T04:09:03;8.50;;;2.97;;
21624;SDS011;10974;51.034;3.744;2023-09-19T04:11:31;6.53;;;2.33;;
21624;SDS011;10974;51.034;3.744;2023-09-19T04:13:58;10.30;;;2.87;;
21624;SDS011;10974;51.034;3.744;2023-09-19T04:16:24;6.90;;;2.27;;
21624;SDS011;10974;51.034;3.744;2023-09-19T04:18:51;7.60;;;2.70;;
21624;SDS011;10974;51.034;3.744;2023-09-19T04:21:17;6.77;;;2.80;;
21624;SDS011;10974;51.034;3.744;2023-09-19T04:23:44;5.93;;;2.70;;
21624;SDS011;10974;51.034;3.744;2023-09-19T04:26:10;9.33;;;2.70;;
21624;SDS011;10974;51.034;3.744;2023-09-19T04:28:37;5.80;;;2.30;;
21624;SDS011;10974;51.034;3.744;2023-09-19T04:31:04;10.00;;;2.97;;
21624;SDS011;10974;51.034;3.744;2023-09-19T04:33:32;7.23;;;2.40;;
21624;SDS011;10974;51.034;3.744;2023-09-19T04:36:00;5.53;;;2.40;;
21624;SDS011;10974;51.034;3.744;2023-09-19T04:38:26;9.00;;;3.17;;
21624;SDS011;10974;51.034;3.744;2023-09-19T04:40:56;11.47;;;2.90;;
21624;SDS011;10974;51.034;3.744;2023-09-19T04:43:24;9.93;;;3.20;;
21624;SDS011;10974;51.034;3.744;2023-09-19T04:45:50;9.07;;;2.50;;
21624;SDS011;10974;51.034;3.744;2023-09-19T04:48:20;9.70;;;2.57;;
21624;SDS011;10974;51.034;3.744;2023-09-19T04:50:48;9.13;;;2.50;;
21624;SDS011;10974;51.034;3.744;2023-09-19T04:53:14;10.70;;;3.10;;
21624;SDS011;10974;51.034;3.744;2023-09-19T04:55:40;7.90;;;3.17;;
21624;SDS011;10974;51.034;3.744;2023-09-19T04:58:06;9.63;;;2.50;;
21624;SDS011;10974;51.034;3.744;2023-09-19T05:00:32;8.77;;;2.73;;
21624;SDS011;10974;51.034;3.744;2023-09-19T05:03:00;7.00;;;2.30;;
21624;SDS011;10974;51.034;3.744;2023-09-19T05:05:29;9.80;;;2.90;;
21624;SDS011;10974;51.034;3.744;2023-09-19T05:07:55;6.83;;;2.37;;
21624;SDS011;10974;51.034;3.744;2023-09-19T05:10:21;8.27;;;2.97;;
21624;SDS011;10974;51.034;3.744;2023-09-19T05:12:47;10.43;;;2.20;;
21624;SDS011;10974;51.034;3.744;2023-09-19T05:15:16;7.03;;;2.50;;
21624;SDS011;10974;51.034;3.744;2023-09-19T05:17:47;7.60;;;3.27;;
21624;SDS011;10974;51.034;3.744;2023-09-19T05:20:15;7.87;;;2.60;;
21624;SDS011;10974;51.034;3.744;2023-09-19T05:22:42;6.50;;;2.70;;
21624;SDS011;10974;51.034;3.744;2023-09-19T05:25:11;7.20;;;2.97;;
21624;SDS011;10974;51.034;3.744;2023-09-19T05:27:42;10.20;;;2.90;;
21624;SDS011;10974;51.034;3.744;2023-09-19T05:30:08;8.87;;;2.57;;
21624;SDS011;10974;51.034;3.744;2023-09-19T05:32:35;7.33;;;2.60;;
21624;SDS011;10974;51.034;3.744;2023-09-19T05:35:01;9.70;;;3.33;;
21624;SDS011;10974;51.034;3.744;2023-09-19T05:37:28;7.53;;;2.73;;
21624;SDS011;10974;51.034;3.744;2023-09-19T05:39:54;9.10;;;2.57;;
21624;SDS011;10974;51.034;3.744;2023-09-19T05:42:20;6.50;;;2.77;;
21624;SDS011;10974;51.034;3.744;2023-09-19T05:44:46;8.37;;;2.60;;
21624;SDS011;10974;51.034;3.744;2023-09-19T05:47:12;10.33;;;2.87;;
21624;SDS011;10974;51.034;3.744;2023-09-19T05:49:38;8.60;;;2.87;;
21624;SDS011;10974;51.034;3.744;2023-09-19T05:52:06;12.80;;;2.97;;
21624;SDS011;10974;51.034;3.744;2023-09-19T05:54:32;13.93;;;2.50;;
21624;SDS011;10974;51.034;3.744;2023-09-19T05:56:59;9.47;;;2.70;;
21624;SDS011;10974;51.034;3.744;2023-09-19T05:59:25;13.70;;;2.90;;
21624;SDS011;10974;51.034;3.744;2023-09-19T06:01:51;8.60;;;2.90;;
21624;SDS011;10974;51.034;3.744;2023-09-19T06:04:18;9.30;;;2.63;;
21624;SDS011;10974;51.034;3.744;2023-09-19T06:06:45;9.90;;;2.53;;
21624;SDS011;10974;51.034;3.744;2023-09-19T06:09:13;7.87;;;2.50;;
21624;SDS011;10974;51.034;3.744;2023-09-19T06:11:41;10.40;;;2.70;;
21624;SDS011;10974;51.034;3.744;2023-09-19T06:14:07;10.20;;;2.40;;
21624;SDS011;10974;51.034;3.744;2023-09-19T06:16:35;7.80;;;2.97;;
21624;SDS011;10974;51.034;3.744;2023-09-19T06:19:03;15.07;;;2.50;;
21624;SDS011;10974;51.034;3.744;2023-09-19T06:21:33;9.33;;;3.00;;
21624;SDS011;10974;51.034;3.744;2023-09-19T06:23:59;7.13;;;2.60;;
21624;SDS011;10974;51.034;3.744;2023-09-19T06:26:26;9.50;;;2.70;;
21624;SDS011;10974;51.034;3.744;2023-09-19T06:28:52;9.40;;;2.57;;
21624;SDS011;10974;51.034;3.744;2023-09-19T06:31:18;7.20;;;2.73;;
21624;SDS011;10974;51.034;3.744;2023-09-19T06:33:46;15.97;;;2.97;;
21624;SDS011;10974;51.034;3.744;2023-09-19T06:36:12;9.40;;;2.57;;
21624;SDS011;10974;51.034;3.744;2023-09-19T06:38:38;6.60;;;2.47;;
21624;SDS011;10974;51.034;3.744;2023-09-19T06:41:04;6.50;;;2.73;;
21624;SDS011;10974;51.034;3.744;2023-09-19T06:43:32;8.77;;;2.73;;
21624;SDS011;10974;51.034;3.744;2023-09-19T06:45:59;7.57;;;2.23;;
21624;SDS011;10974;51.034;3.744;2023-09-19T06:48:25;10.93;;;3.00;;
21624;SDS011;10974;51.034;3.744;2023-09-19T06:50:54;8.40;;;2.73;;
21624;SDS011;10974;51.034;3.744;2023-09-19T06:53:21;4.83;;;2.10;;
21624;SDS011;10974;51.034;3.744;2023-09-19T06:55:48;7.20;;;2.13;;
21624;SDS011;10974;51.034;3.744;2023-09-19T06:58:15;8.07;;;2.80;;
21624;SDS011;10974;51.034;3.744;2023-09-19T07:00:42;5.07;;;2.37;;
21624;SDS011;10974;51.034;3.744;2023-09-19T07:03:09;8.53;;;2.57;;
21624;SDS011;10974;51.034;3.744;2023-09-19T07:05:39;10.33;;;2.53;;
21624;SDS011;10974;51.034;3.744;2023-09-19T07:08:06;11.20;;;2.73;;
21624;SDS011;10974;51.034;3.744;2023-09-19T07:10:33;8.47;;;2.80;;
21624;SDS011;10974;51.034;3.744;2023-09-19T07:15:25;6.13;;;2.70;;
21624;SDS011;10974;51.034;3.744;2023-09-19T07:17:55;7.77;;;2.60;;
21624;SDS011;10974;51.034;3.744;2023-09-19T07:20:21;9.87;;;2.73;;
21624;SDS011;10974;51.034;3.744;2023-09-19T07:22:51;8.43;;;2.77;;
21624;SDS011;10974;51.034;3.744;2023-09-19T07:25:17;6.53;;;2.50;;
21624;SDS011;10974;51.034;3.744;2023-09-19T07:27:43;8.37;;;2.70;;
21624;SDS011;10974;51.034;3.744;2023-09-19T07:30:10;9.60;;;2.63;;
21624;SDS011;10974;51.034;3.744;2023-09-19T07:32:37;15.60;;;2.90;;
21624;SDS011;10974;51.034;3.744;2023-09-19T07:35:03;7.67;;;2.90;;
21624;SDS011;10974;51.034;3.744;2023-09-19T07:37:30;7.93;;;2.70;;
21624;SDS011;10974;51.034;3.744;2023-09-19T07:39:58;9.00;;;2.70;;
21624;SDS011;10974;51.034;3.744;2023-09-19T07:42:24;7.40;;;2.27;;
21624;SDS011;10974;51.034;3.744;2023-09-19T07:44:50;6.10;;;2.10;;
21624;SDS011;10974;51.034;3.744;2023-09-19T07:47:19;8.93;;;3.23;;
21624;SDS011;10974;51.034;3.744;2023-09-19T07:49:48;11.80;;;3.00;;
21624;SDS011;10974;51.034;3.744;2023-09-19T07:52:15;10.73;;;3.63;;
21624;SDS011;10974;51.034;3.744;2023-09-19T07:54:41;6.47;;;2.90;;
21624;SDS011;10974;51.034;3.744;2023-09-19T07:57:09;6.13;;;2.30;;
21624;SDS011;10974;51.034;3.744;2023-09-19T07:59:36;9.57;;;2.73;;
21624;SDS011;10974;51.034;3.744;2023-09-19T08:02:03;8.30;;;2.60;;
21624;SDS011;10974;51.034;3.744;2023-09-19T08:04:29;6.27;;;2.30;;
21624;SDS011;10974;51.034;3.744;2023-09-19T08:06:57;10.40;;;2.80;;
21624;SDS011;10974;51.034;3.744;2023-09-19T08:09:24;9.77;;;2.83;;
21624;SDS011;10974;51.034;3.744;2023-09-19T08:11:50;13.00;;;2.90;;
21624;SDS011;10974;51.034;3.744;2023-09-19T08:14:16;9.77;;;2.90;;
21624;SDS011;10974;51.034;3.744;2023-09-19T08:16:42;10.83;;;2.43;;
21624;SDS011;10974;51.034;3.744;2023-09-19T08:19:11;9.00;;;2.70;;
21624;SDS011;10974;51.034;3.744;2023-09-19T08:21:37;8.53;;;2.43;;
21624;SDS011;10974;51.034;3.744;2023-09-19T08:24:03;9.37;;;2.60;;
21624;SDS011;10974;51.034;3.744;2023-09-19T08:26:30;8.30;;;3.00;;
21624;SDS011;10974;51.034;3.744;2023-09-19T08:28:57;7.50;;;2.40;;
21624;SDS011;10974;51.034;3.744;2023-09-19T08:31:24;8.60;;;2.60;;
21624;SDS011;10974;51.034;3.744;2023-09-19T08:33:50;8.00;;;3.13;;
21624;SDS011;10974;51.034;3.744;2023-09-19T08:36:18;8.30;;;2.80;;
21624;SDS011;10974;51.034;3.744;2023-09-19T08:38:44;12.20;;;2.90;;
21624;SDS011;10974;51.034;3.744;2023-09-19T08:41:10;12.07;;;2.37;;
21624;SDS011;10974;51.034;3.744;2023-09-19T08:43:36;7.27;;;2.00;;
21624;SDS011;10974;51.034;3.744;2023-09-19T08:48:31;7.03;;;2.20;;
21624;SDS011;10974;51.034;3.744;2023-09-19T08:51:02;8.30;;;2.03;;
21624;SDS011;10974;51.034;3.744;2023-09-19T08:53:41;8.90;;;2.73;;
21624;SDS011;10974;51.034;3.744;2023-09-19T08:56:08;9.13;;;2.90;;
21624;SDS011;10974;51.034;3.744;2023-09-19T08:58:38;8.07;;;2.50;;
21624;SDS011;10974;51.034;3.744;2023-09-19T09:01:05;5.00;;;2.40;;
21624;SDS011;10974;51.034;3.744;2023-09-19T09:03:33;11.10;;;3.40;;
21624;SDS011;10974;51.034;3.744;2023-09-19T09:06:01;8.43;;;2.30;;
21624;SDS011;10974;51.034;3.744;2023-09-19T09:08:27;6.50;;;2.60;;
21624;SDS011;10974;51.034;3.744;2023-09-19T09:10:53;11.00;;;3.27;;
21624;SDS011;10974;51.034;3.744;2023-09-19T09:13:19;11.43;;;2.83;;
21624;SDS011;10974;51.034;3.744;2023-09-19T09:15:47;9.17;;;2.53;;
21624;SDS011;10974;51.034;3.744;2023-09-19T09:18:13;9.23;;;2.33;;
21624;SDS011;10974;51.034;3.744;2023-09-19T09:20:39;6.17;;;2.20;;
21624;SDS011;10974;51.034;3.744;2023-09-19T09:23:06;8.27;;;2.33;;
21624;SDS011;10974;51.034;3.744;2023-09-19T09:25:47;6.17;;;2.73;;
21624;SDS011;10974;51.034;3.744;2023-09-19T09:28:23;7.50;;;2.50;;
21624;SDS011;10974;51.034;3.744;2023-09-19T09:30:50;5.90;;;2.50;;
21624;SDS011;10974;51.034;3.744;2023-09-19T09:33:16;6.03;;;1.90;;
21624;SDS011;10974;51.034;3.744;2023-09-19T09:35:53;4.73;;;1.80;;
21624;SDS011;10974;51.034;3.744;2023-09-19T09:38:21;6.77;;;2.40;;
21624;SDS011;10974;51.034;3.744;2023-09-19T09:40:53;6.20;;;2.23;;
21624;SDS011;10974;51.034;3.744;2023-09-19T09:43:36;5.03;;;1.93;;
21624;SDS011;10974;51.034;3.744;2023-09-19T09:46:07;8.70;;;2.53;;
21624;SDS011;10974;51.034;3.744;2023-09-19T09:48:45;6.70;;;2.20;;
21624;SDS011;10974;51.034;3.744;2023-09-19T09:51:31;5.70;;;1.87;;
21624;SDS011;10974;51.034;3.744;2023-09-19T09:54:14;5.30;;;2.10;;
21624;SDS011;10974;51.034;3.744;2023-09-19T09:57:02;5.57;;;2.07;;
21624;SDS011;10974;51.034;3.744;2023-09-19T09:59:54;5.10;;;2.30;;
21624;SDS011;10974;51.034;3.744;2023-09-19T10:02:26;6.57;;;2.60;;
21624;SDS011;10974;51.034;3.744;2023-09-19T10:08:11;5.00;;;1.80;;
21624;SDS011;10974;51.034;3.744;2023-09-19T10:10:39;7.07;;;2.40;;
21624;SDS011;10974;51.034;3.744;2023-09-19T10:13:08;4.87;;;1.53;;
21624;SDS011;10974;51.034;3.744;2023-09-19T10:15:38;4.20;;;1.70;;
21624;SDS011;10974;51.034;3.744;2023-09-19T10:18:11;6.73;;;1.47;;
21624;SDS011;10974;51.034;3.744;2023-09-19T10:20:43;6.20;;;1.53;;
21624;SDS011;10974;51.034;3.744;2023-09-19T10:23:11;6.37;;;1.90;;
21624;SDS011;10974;51.034;3.744;2023-09-19T10:25:44;4.73;;;1.70;;
21624;SDS011;10974;51.034;3.744;2023-09-19T10:28:13;6.23;;;2.03;;
21624;SDS011;10974;51.034;3.744;2023-09-19T10:30:43;9.20;;;1.87;;
21624;SDS011;10974;51.034;3.744;2023-09-19T10:33:13;9.10;;;1.90;;
21624;SDS011;10974;51.034;3.744;2023-09-19T10:35:43;3.37;;;1.60;;
21624;SDS011;10974;51.034;3.744;2023-09-19T10:38:10;7.00;;;1.80;;
21624;SDS011;10974;51.034;3.744;2023-09-19T10:40:37;5.40;;;1.73;;
21624;SDS011;10974;51.034;3.744;2023-09-19T10:43:08;3.70;;;1.80;;
21624;SDS011;10974;51.034;3.744;2023-09-19T10:45:36;4.80;;;1.40;;
21624;SDS011;10974;51.034;3.744;2023-09-19T10:48:04;7.07;;;2.00;;
21624;SDS011;10974;51.034;3.744;2023-09-19T10:50:43;4.80;;;1.50;;
21624;SDS011;10974;51.034;3.744;2023-09-19T10:53:10;3.90;;;1.37;;
21624;SDS011;10974;51.034;3.744;2023-09-19T10:55:37;5.20;;;1.60;;
21624;SDS011;10974;51.034;3.744;2023-09-19T10:58:04;5.30;;;1.60;;
21624;SDS011;10974;51.034;3.744;2023-09-19T11:00:53;2.93;;;1.20;;
21624;SDS011;10974;51.034;3.744;2023-09-19T11:03:20;3.33;;;1.27;;
21624;SDS011;10974;51.034;3.744;2023-09-19T11:06:02;2.97;;;1.47;;
21624;SDS011;10974;51.034;3.744;2023-09-19T11:08:30;4.10;;;1.47;;
21624;SDS011;10974;51.034;3.744;2023-09-19T11:10:57;6.80;;;1.43;;
21624;SDS011;10974;51.034;3.744;2023-09-19T11:13:28;4.87;;;1.90;;
21624;SDS011;10974;51.034;3.744;2023-09-19T11:29:28;3.17;;;1.40;;
21624;SDS011;10974;51.034;3.744;2023-09-19T11:31:56;2.90;;;1.63;;
21624;SDS011;10974;51.034;3.744;2023-09-19T11:42:42;6.30;;;1.30;;
21624;SDS011;10974;51.034;3.744;2023-09-19T11:46:00;5.33;;;1.60;;
21624;SDS011;10974;51.034;3.744;2023-09-19T11:47:55;2.83;;;1.77;;
21624;SDS011;10974;51.034;3.744;2023-09-19T11:50:24;4.27;;;1.23;;
21624;SDS011;10974;51.034;3.744;2023-09-19T11:52:51;3.50;;;1.33;;
21624;SDS011;10974;51.034;3.744;2023-09-19T11:55:17;2.90;;;1.50;;
21624;SDS011;10974;51.034;3.744;2023-09-19T11:57:47;4.37;;;1.70;;
21624;SDS011;10974;51.034;3.744;2023-09-19T12:00:19;3.70;;;1.47;;
21624;SDS011;10974;51.034;3.744;2023-09-19T12:02:46;10.57;;;1.63;;
21624;SDS011;10974;51.034;3.744;2023-09-19T12:05:13;2.80;;;1.57;;
21624;SDS011;10974;51.034;3.744;2023-09-19T12:07:43;7.40;;;1.47;;
21624;SDS011;10974;51.034;3.744;2023-09-19T12:10:12;3.27;;;1.30;;
21624;SDS011;10974;51.034;3.744;2023-09-19T12:12:46;12.30;;;1.67;;
21624;SDS011;10974;51.034;3.744;2023-09-19T12:15:24;1.90;;;1.23;;
21624;SDS011;10974;51.034;3.744;2023-09-19T12:17:53;2.87;;;1.50;;
21624;SDS011;10974;51.034;3.744;2023-09-19T12:20:20;3.10;;;1.70;;
21624;SDS011;10974;51.034;3.744;2023-09-19T12:22:46;2.97;;;1.50;;
21624;SDS011;10974;51.034;3.744;2023-09-19T12:25:14;2.37;;;1.50;;
21624;SDS011;10974;51.034;3.744;2023-09-19T12:27:45;1.93;;;1.70;;
21624;SDS011;10974;51.034;3.744;2023-09-19T12:30:17;3.70;;;2.00;;
21624;SDS011;10974;51.034;3.744;2023-09-19T12:32:45;4.60;;;1.40;;
21624;SDS011;10974;51.034;3.744;2023-09-19T12:35:26;4.07;;;1.70;;
21624;SDS011;10974;51.034;3.744;2023-09-19T12:37:54;3.57;;;1.63;;
21624;SDS011;10974;51.034;3.744;2023-09-19T12:40:20;5.27;;;1.50;;
21624;SDS011;10974;51.034;3.744;2023-09-19T12:42:56;2.00;;;1.50;;
21624;SDS011;10974;51.034;3.744;2023-09-19T12:45:32;2.40;;;1.50;;
21624;SDS011;10974;51.034;3.744;2023-09-19T12:48:19;4.23;;;1.70;;
21624;SDS011;10974;51.034;3.744;2023-09-19T12:50:58;2.80;;;1.37;;
21624;SDS011;10974;51.034;3.744;2023-09-19T12:53:25;4.93;;;2.67;;
21624;SDS011;10974;51.034;3.744;2023-09-19T12:56:00;2.97;;;1.63;;
21624;SDS011;10974;51.034;3.744;2023-09-19T12:58:26;3.47;;;1.60;;
21624;SDS011;10974;51.034;3.744;2023-09-19T13:00:52;3.00;;;1.70;;
21624;SDS011;10974;51.034;3.744;2023-09-19T13:06:01;4.30;;;1.90;;
21624;SDS011;10974;51.034;3.744;2023-09-19T13:13:44;3.27;;;1.67;;
21624;SDS011;10974;51.034;3.744;2023-09-19T13:16:13;4.97;;;1.80;;
21624;SDS011;10974;51.034;3.744;2023-09-19T13:18:43;3.30;;;1.70;;
21624;SDS011;10974;51.034;3.744;2023-09-19T13:21:10;5.73;;;1.73;;
21624;SDS011;10974;51.034;3.744;2023-09-19T13:23:53;4.60;;;2.10;;
21624;SDS011;10974;51.034;3.744;2023-09-19T13:26:27;4.73;;;1.70;;
21624;SDS011;10974;51.034;3.744;2023-09-19T13:28:54;9.93;;;1.70;;
21624;SDS011;10974;51.034;3.744;2023-09-19T13:31:20;3.73;;;1.90;;
21624;SDS011;10974;51.034;3.744;2023-09-19T13:33:48;3.53;;;1.97;;
21624;SDS011;10974;51.034;3.744;2023-09-19T13:36:15;6.47;;;2.07;;
21624;SDS011;10974;51.034;3.744;2023-09-19T13:38:43;4.43;;;1.77;;
21624;SDS011;10974;51.034;3.744;2023-09-19T13:41:10;9.37;;;1.73;;
21624;SDS011;10974;51.034;3.744;2023-09-19T13:43:37;5.87;;;1.93;;
21624;SDS011;10974;51.034;3.744;2023-09-19T13:46:04;3.83;;;2.07;;
21624;SDS011;10974;51.034;3.744;2023-09-19T13:48:30;1.97;;;1.50;;
21624;SDS011;10974;51.034;3.744;2023-09-19T13:50:56;8.00;;;2.30;;
21624;SDS011;10974;51.034;3.744;2023-09-19T13:53:22;3.90;;;2.10;;
21624;SDS011;10974;51.034;3.744;2023-09-19T13:55:48;5.80;;;2.00;;
21624;SDS011;10974;51.034;3.744;2023-09-19T13:58:14;2.40;;;1.53;;
21624;SDS011;10974;51.034;3.744;2023-09-19T14:00:41;4.13;;;2.33;;
21624;SDS011;10974;51.034;3.744;2023-09-19T14:03:08;3.93;;;1.90;;
21624;SDS011;10974;51.034;3.744;2023-09-19T14:05:35;6.70;;;1.80;;
21624;SDS011;10974;51.034;3.744;2023-09-19T14:08:02;5.07;;;2.00;;
21624;SDS011;10974;51.034;3.744;2023-09-19T14:10:29;4.53;;;1.67;;
21624;SDS011;10974;51.034;3.744;2023-09-19T14:12:56;6.63;;;1.87;;
21624;SDS011;10974;51.034;3.744;2023-09-19T14:15:24;6.63;;;2.20;;
21624;SDS011;10974;51.034;3.744;2023-09-19T14:17:55;3.87;;;1.73;;
21624;SDS011;10974;51.034;3.744;2023-09-19T14:20:21;3.37;;;1.53;;
21624;SDS011;10974;51.034;3.744;2023-09-19T14:22:48;6.67;;;2.07;;
21624;SDS011;10974;51.034;3.744;2023-09-19T14:25:14;6.97;;;2.47;;
21624;SDS011;10974;51.034;3.744;2023-09-19T14:27:41;3.40;;;2.33;;
21624;SDS011;10974;51.034;3.744;2023-09-19T14:30:07;6.53;;;2.07;;
21624;SDS011;10974;51.034;3.744;2023-09-19T14:32:34;3.97;;;1.93;;
21624;SDS011;10974;51.034;3.744;2023-09-19T14:35:01;3.50;;;1.90;;
21624;SDS011;10974;51.034;3.744;2023-09-19T14:37:27;4.67;;;2.07;;
21624;SDS011;10974;51.034;3.744;2023-09-19T14:39:53;6.50;;;2.17;;
21624;SDS011;10974;51.034;3.744;2023-09-19T14:42:20;7.87;;;2.07;;
21624;SDS011;10974;51.034;3.744;2023-09-19T14:44:46;5.73;;;2.00;;
21624;SDS011;10974;51.034;3.744;2023-09-19T14:47:15;4.37;;;2.03;;
21624;SDS011;10974;51.034;3.744;2023-09-19T14:49:42;5.20;;;1.93;;
21624;SDS011;10974;51.034;3.744;2023-09-19T14:52:08;4.60;;;1.60;;
21624;SDS011;10974;51.034;3.744;2023-09-19T14:54:35;5.13;;;2.10;;
21624;SDS011;10974;51.034;3.744;2023-09-19T14:57:03;4.50;;;2.03;;
21624;SDS011;10974;51.034;3.744;2023-09-19T14:59:33;4.13;;;1.80;;
21624;SDS011;10974;51.034;3.744;2023-09-19T15:02:02;6.17;;;2.10;;
21624;SDS011;10974;51.034;3.744;2023-09-19T15:04:29;4.83;;;2.37;;
21624;SDS011;10974;51.034;3.744;2023-09-19T15:06:55;6.73;;;2.13;;
21624;SDS011;10974;51.034;3.744;2023-09-19T15:09:21;5.47;;;1.97;;
21624;SDS011;10974;51.034;3.744;2023-09-19T15:11:55;4.80;;;2.00;;
21624;SDS011;10974;51.034;3.744;2023-09-19T15:14:21;6.40;;;2.60;;
21624;SDS011;10974;51.034;3.744;2023-09-19T15:16:49;6.10;;;2.20;;
21624;SDS011;10974;51.034;3.744;2023-09-19T15:19:15;3.13;;;1.90;;
21624;SDS011;10974;51.034;3.744;2023-09-19T15:21:43;5.07;;;2.30;;
21624;SDS011;10974;51.034;3.744;2023-09-19T15:24:09;6.00;;;1.90;;
21624;SDS011;10974;51.034;3.744;2023-09-19T15:26:35;4.90;;;2.30;;
21624;SDS011;10974;51.034;3.744;2023-09-19T15:29:08;5.40;;;3.00;;
21624;SDS011;10974;51.034;3.744;2023-09-19T15:31:34;9.40;;;2.50;;
21624;SDS011;10974;51.034;3.744;2023-09-19T15:34:04;4.27;;;2.13;;
21624;SDS011;10974;51.034;3.744;2023-09-19T15:36:32;5.10;;;2.37;;
21624;SDS011;10974;51.034;3.744;2023-09-19T15:38:59;8.00;;;2.20;;
21624;SDS011;10974;51.034;3.744;2023-09-19T15:41:32;7.23;;;2.30;;
21624;SDS011;10974;51.034;3.744;2023-09-19T15:43:59;7.37;;;2.30;;
21624;SDS011;10974;51.034;3.744;2023-09-19T15:46:29;3.97;;;2.50;;
21624;SDS011;10974;51.034;3.744;2023-09-19T15:48:55;5.80;;;2.53;;
21624;SDS011;10974;51.034;3.744;2023-09-19T15:51:22;4.23;;;2.17;;
21624;SDS011;10974;51.034;3.744;2023-09-19T15:53:49;6.27;;;2.60;;
21624;SDS011;10974;51.034;3.744;2023-09-19T15:56:15;7.90;;;2.40;;
21624;SDS011;10974;51.034;3.744;2023-09-19T15:58:45;5.13;;;2.10;;
21624;SDS011;10974;51.034;3.744;2023-09-19T16:01:12;6.97;;;2.73;;
21624;SDS011;10974;51.034;3.744;2023-09-19T16:03:38;9.50;;;2.80;;
21624;SDS011;10974;51.034;3.744;2023-09-19T16:06:38;12.00;;;3.33;;
21624;SDS011;10974;51.034;3.744;2023-09-19T16:08:58;5.70;;;2.30;;
21624;SDS011;10974;51.034;3.744;2023-09-19T16:11:25;6.57;;;2.27;;
21624;SDS011;10974;51.034;3.744;2023-09-19T16:13:52;7.87;;;2.33;;
21624;SDS011;10974;51.034;3.744;2023-09-19T16:16:20;4.67;;;2.53;;
21624;SDS011;10974;51.034;3.744;2023-09-19T16:18:58;6.43;;;2.20;;
21624;SDS011;10974;51.034;3.744;2023-09-19T16:21:28;9.33;;;3.03;;
21624;SDS011;10974;51.034;3.744;2023-09-19T16:23:56;3.97;;;2.33;;
21624;SDS011;10974;51.034;3.744;2023-09-19T16:26:23;5.27;;;2.27;;
21624;SDS011;10974;51.034;3.744;2023-09-19T16:28:51;5.50;;;2.30;;
21624;SDS011;10974;51.034;3.744;2023-09-19T16:31:17;5.10;;;2.30;;
21624;SDS011;10974;51.034;3.744;2023-09-19T16:33:44;9.93;;;2.47;;
21624;SDS011;10974;51.034;3.744;2023-09-19T16:36:17;7.87;;;2.33;;
21624;SDS011;10974;51.034;3.744;2023-09-19T16:38:44;11.97;;;2.17;;
21624;SDS011;10974;51.034;3.744;2023-09-19T16:41:10;6.47;;;2.27;;
21624;SDS011;10974;51.034;3.744;2023-09-19T16:43:37;8.50;;;2.53;;
21624;SDS011;10974;51.034;3.744;2023-09-19T16:46:07;5.87;;;2.23;;
21624;SDS011;10974;51.034;3.744;2023-09-19T16:48:34;10.17;;;2.03;;
21624;SDS011;10974;51.034;3.744;2023-09-19T16:51:01;3.70;;;2.20;;
21624;SDS011;10974;51.034;3.744;2023-09-19T16:53:32;5.67;;;2.70;;
21624;SDS011;10974;51.034;3.744;2023-09-19T16:56:06;6.87;;;2.70;;
21624;SDS011;10974;51.034;3.744;2023-09-19T16:58:37;8.03;;;2.00;;
21624;SDS011;10974;51.034;3.744;2023-09-19T17:01:06;6.20;;;2.60;;
21624;SDS011;10974;51.034;3.744;2023-09-19T17:03:36;9.03;;;3.33;;
21624;SDS011;10974;51.034;3.744;2023-09-19T17:06:02;5.83;;;2.60;;
21624;SDS011;10974;51.034;3.744;2023-09-19T17:08:31;7.80;;;2.80;;
21624;SDS011;10974;51.034;3.744;2023-09-19T17:11:03;9.63;;;3.23;;
21624;SDS011;10974;51.034;3.744;2023-09-19T17:13:31;7.73;;;2.67;;
21624;SDS011;10974;51.034;3.744;2023-09-19T17:16:10;5.60;;;2.70;;
21624;SDS011;10974;51.034;3.744;2023-09-19T17:18:37;6.87;;;2.30;;
21624;SDS011;10974;51.034;3.744;2023-09-19T17:21:04;4.47;;;2.50;;
21624;SDS011;10974;51.034;3.744;2023-09-19T17:23:35;5.50;;;2.40;;
21624;SDS011;10974;51.034;3.744;2023-09-19T17:26:05;7.60;;;2.63;;
21624;SDS011;10974;51.034;3.744;2023-09-19T17:28:33;4.73;;;2.07;;
21624;SDS011;10974;51.034;3.744;2023-09-19T17:31:02;4.83;;;2.40;;
21624;SDS011;10974;51.034;3.744;2023-09-19T17:33:29;8.47;;;2.70;;
21624;SDS011;10974;51.034;3.744;2023-09-19T17:36:12;4.90;;;2.60;;
21624;SDS011;10974;51.034;3.744;2023-09-19T17:38:51;5.63;;;2.20;;
21624;SDS011;10974;51.034;3.744;2023-09-19T17:41:18;5.63;;;2.40;;
21624;SDS011;10974;51.034;3.744;2023-09-19T17:43:51;5.77;;;2.70;;
21624;SDS011;10974;51.034;3.744;2023-09-19T17:46:18;5.80;;;2.30;;
21624;SDS011;10974;51.034;3.744;2023-09-19T17:48:45;4.60;;;2.73;;
21624;SDS011;10974;51.034;3.744;2023-09-19T17:51:12;8.80;;;2.20;;
21624;SDS011;10974;51.034;3.744;2023-09-19T17:53:39;6.20;;;2.53;;
21624;SDS011;10974;51.034;3.744;2023-09-19T17:56:07;7.13;;;2.80;;
21624;SDS011;10974;51.034;3.744;2023-09-19T17:58:37;7.20;;;2.43;;
21624;SDS011;10974;51.034;3.744;2023-09-19T18:01:09;4.83;;;2.40;;
21624;SDS011;10974;51.034;3.744;2023-09-19T18:03:35;5.53;;;2.47;;
21624;SDS011;10974;51.034;3.744;2023-09-19T18:06:02;7.10;;;3.37;;
21624;SDS011;10974;51.034;3.744;2023-09-19T18:08:28;4.60;;;2.40;;
21624;SDS011;10974;51.034;3.744;2023-09-19T18:10:54;3.30;;;2.20;;
21624;SDS011;10974;51.034;3.744;2023-09-19T18:13:20;8.23;;;2.90;;
21624;SDS011;10974;51.034;3.744;2023-09-19T18:15:46;5.27;;;2.20;;
21624;SDS011;10974;51.034;3.744;2023-09-19T18:18:12;6.20;;;2.77;;
21624;SDS011;10974;51.034;3.744;2023-09-19T18:20:40;5.83;;;2.50;;
21624;SDS011;10974;51.034;3.744;2023-09-19T18:23:06;5.10;;;2.60;;
21624;SDS011;10974;51.034;3.744;2023-09-19T18:25:33;11.23;;;2.63;;
21624;SDS011;10974;51.034;3.744;2023-09-19T18:27:59;9.70;;;2.90;;
21624;SDS011;10974;51.034;3.744;2023-09-19T18:30:26;6.17;;;2.70;;
21624;SDS011;10974;51.034;3.744;2023-09-19T18:32:52;6.87;;;3.07;;
21624;SDS011;10974;51.034;3.744;2023-09-19T18:35:18;5.70;;;3.13;;
21624;SDS011;10974;51.034;3.744;2023-09-19T18:37:44;7.03;;;2.60;;
21624;SDS011;10974;51.034;3.744;2023-09-19T18:40:11;5.73;;;3.60;;
21624;SDS011;10974;51.034;3.744;2023-09-19T18:42:37;6.03;;;2.77;;
21624;SDS011;10974;51.034;3.744;2023-09-19T18:45:06;9.63;;;2.70;;
21624;SDS011;10974;51.034;3.744;2023-09-19T18:47:33;4.20;;;2.53;;
21624;SDS011;10974;51.034;3.744;2023-09-19T18:50:01;8.80;;;2.60;;
21624;SDS011;10974;51.034;3.744;2023-09-19T18:52:27;4.70;;;2.20;;
21624;SDS011;10974;51.034;3.744;2023-09-19T18:54:54;6.77;;;2.63;;
21624;SDS011;10974;51.034;3.744;2023-09-19T18:57:20;4.63;;;2.60;;
21624;SDS011;10974;51.034;3.744;2023-09-19T18:59:46;4.90;;;2.67;;
21624;SDS011;10974;51.034;3.744;2023-09-19T19:02:13;8.50;;;2.50;;
21624;SDS011;10974;51.034;3.744;2023-09-19T19:04:39;8.07;;;2.80;;
21624;SDS011;10974;51.034;3.744;2023-09-19T19:07:08;6.93;;;2.40;;
21624;SDS011;10974;51.034;3.744;2023-09-19T19:09:39;5.63;;;2.57;;